Terminal Aerodrome Forecast
Issued by NWS Grand Forks, ND

Home | Current Version | Previous Version | Graphics & Text | Print | Product List | Glossary Off
Versions: 1 2 3 4 5 6 7 8 9 10 11 12 13 14 15 16 17

000
FTUS43 KFGF 050520
TAFFAR
TAF
KFAR 050520Z 0506/0606 12007KT P6SM SCT060
      TEMPO 0509/0512 2SM BR
     FM051500 08007KT P6SM SCT250
     FM060000 16010KT P6SM BKN080=

USA.gov is the U.S. government's official web portal to all federal, state and local government web resources and services.